Nearby METAR Reports

 

KMLP - Mullan Pass, Idaho, USA
Distance from station: NE 41mi, 66km
Updated: Tue, 14-Jul-2020 7:53am PDT
Clear
Clear
 Wind from NNW
Wind: NNW 5 mph , 7 km/h
Temperature: 48°F , 9°C
Wind Chill: 46°F , 8°C
Dew Point: 32°F , 0°C
Humidity: 54%
Barometer: 30.20 inHg , 1022.7 hPa
Clouds: Clear
Visibility: 10 miles , 16 km
2020/07/14 14:53 KMLP 141453Z AUTO 33004KT 10SM CLR 09/00 A3020 RMK AO2 SLP157 T00890000 53008
KPUW - Pullman/Moscow, Washington, USA
Distance from station: SW 42mi, 68km
Updated: Tue, 14-Jul-2020 7:53am PDT
Clear
Clear
 Wind from ESE
Wind: ESE 3 mph , 6 km/h
Temperature: 59°F , 15°C
Dew Point: 45°F , 7°C
Humidity: 59%
Barometer: 30.14 inHg , 1020.7 hPa
Clouds: Clear
Visibility: 10 miles , 16 km
2020/07/14 14:53 KPUW 141453Z AUTO 11003KT 10SM CLR 15/07 A3014 RMK AO2 SLP200 T01500067 51010
 
KCOE - Coeur D'alene, Idaho, USA
Distance from station: NNW 49mi, 79km
Updated: Tue, 14-Jul-2020 7:56am PDT
Clear
Clear
 Wind from E
Wind: E 5 mph , 7 km/h
Temperature: 59°F , 15°C
Dew Point: 46°F , 8°C
Humidity: 63%
Barometer: 30.13 inHg , 1020.3 hPa
Clouds: Clear
Visibility: 10 miles , 16 km
2020/07/14 14:56 KCOE 141456Z AUTO 09004KT 10SM CLR 15/08 A3013 RMK AO2 SLP212 T01500083 53010
KSFF - Spokane/Felts, Washington, USA
Distance from station: NW 59mi, 94km
Updated: Tue, 14-Jul-2020 7:53am PDT
Clear
Clear
 Wind from calm
Wind: Calm
Temperature: 57°F , 14°C
Dew Point: 45°F , 7°C
Humidity: 63%
Barometer: 30.12 inHg , 1020 hPa
Clouds: Clear
Visibility: 10 miles , 16 km
2020/07/14 14:53 KSFF 141453Z 00000KT 10SM CLR 14/07 A3012 RMK AO2 SLP192 T01440072 51012
 
KLWS - Lewiston, Idaho, USA
Distance from station: SSW 59mi, 96km
Updated: Tue, 14-Jul-2020 7:56am PDT
Clear
Clear
 Wind from ENE
Wind: ENE 5 mph , 7 km/h
Temperature: 61°F , 16°C
Dew Point: 43°F , 6°C
Humidity: 52%
Barometer: 30.13 inHg , 1020.3 hPa
Clouds: Clear
Visibility: 10 miles , 16 km
2020/07/14 14:56 KLWS 141456Z 06004KT 10SM CLR 16/06 A3013 RMK AO2 SLP196 T01560061 51015
KGEG - Spokane/Metro, Washington, USA
Distance from station: WNW 64mi, 103km
Updated: Tue, 14-Jul-2020 7:53am PDT
Few Clouds
Few Clouds
 Wind from ESE
Wind: ESE 6 mph , 9 km/h
Temperature: 61°F , 16°C
Dew Point: 39°F , 4°C
Humidity: 45%
Barometer: 30.12 inHg , 1020 hPa
Clouds: Few Clouds
Visibility: 10 miles , 16 km
Cloud details: Few Clouds 14000 ft
2020/07/14 14:53 KGEG 141453Z 12005KT 10SM FEW140 16/04 A3012 RMK AO2 SLP186 T01560044 51012
 
KSKA - Fairchild Afb, Washington, USA
Distance from station: WNW 68mi, 110km
Updated: Tue, 14-Jul-2020 7:58am PDT
Clear
Clear
 Wind from E
Wind: E 6 mph , 9 km/h
Temperature: 61°F , 16°C
Dew Point: 43°F , 6°C
Humidity: 52%
Barometer: 30.12 inHg , 1020 hPa
Clouds: Clear
Visibility: 10 miles , 16 km
2020/07/14 14:58 KSKA 141458Z AUTO 09005KT 10SM CLR 16/06 A3012 RMK AO2 SLP192 T01560055 52012 $